F/V Pasiphae 2 — FMFN — position and weather

sailwx.info

Track history (hours):
 
Tides and Currents Weather Stations Pressure Air Temp Water Temp Dewpoint Dewpoint Depression Visibility Wind Speed Wind Dir Waves Ship Positions

F/V Pasiphae 2

Last reported at 2017-Feb-25 01:30 UTC. Time now 2017-Feb-25 13:45 UTC.
Position N 47°44' W 003°22'.

Length 14 m.

Type: Fishing. MMSI: 228224800.

Date/timePositionNaut miles runAvg speedWind from/ knotsBaromVisibWave heightAir tempDewpointWater temp
2017-Feb-25 01:30N 47°44' W 003°22'7 7.1
2017-Feb-25 00:33N 47°37' W 003°22'7 7.5
2017-Feb-24 23:33N 47°30' W 003°24'3 2.6
2017-Feb-24 22:33N 47°31' W 003°27'2 2.3
2017-Feb-24 21:33N 47°31' W 003°24'3 2.7
2017-Feb-24 20:33N 47°30' W 003°27'4 3.8
2017-Feb-24 19:32N 47°30' W 003°33'4 3.6
2017-Feb-24 18:33N 47°31' W 003°38'3 3.0
2017-Feb-24 17:33N 47°28' W 003°37'3 2.7
2017-Feb-24 16:33N 47°31' W 003°37'3 2.9
2017-Feb-24 15:33N 47°30' W 003°41'3 3.4
2017-Feb-24 14:33N 47°29' W 003°36'2 2.4
2017-Feb-24 13:33N 47°31' W 003°35'4 4.0
2017-Feb-24 12:33N 47°31' W 003°40'2 1.9
2017-Feb-24 11:31N 47°29' W 003°41'3 3.6
2017-Feb-24 10:33N 47°30' W 003°36'3 2.7
2017-Feb-24 09:33N 47°32' W 003°39'4 3.5
2017-Feb-24 08:33N 47°29' W 003°42'3 3.0
2017-Feb-24 07:33N 47°26' W 003°44'4 3.4
2017-Feb-24 06:31N 47°23' W 003°47'4 3.7
2017-Feb-24 05:33N 47°20' W 003°45'9 2.7
2017-Feb-24 02:16N 47°17' W 003°33'2 3.1
2017-Feb-24 01:32N 47°16' W 003°30'4 3.4
2017-Feb-24 00:29N 47°16' W 003°25'3 3.1
2017-Feb-23 23:33N 47°18' W 003°28'2 2.4
2017-Feb-23 22:33N 47°16' W 003°29'3 2.8
2017-Feb-23 21:32N 47°16' W 003°25'22 5.5
2017-Feb-23 17:27N 47°31' W 003°49'6 6.5
2017-Feb-23 16:33N 47°29' W 003°42'2 2.1
2017-Feb-23 15:33N 47°28' W 003°39'6 5.8
2017-Feb-23 14:32N 47°28' W 003°48'3 3.1
2017-Feb-23 13:33N 47°27' W 003°52'8 8.1
2017-Feb-23 12:33N 47°28' W 003°40'3 3.1
2017-Feb-23 11:32N 47°30' W 003°37'3 2.9
2017-Feb-23 10:33N 47°31' W 003°40'3 3.2
2017-Feb-23 09:33N 47°28' W 003°42'2 2.0
2017-Feb-23 08:20N 47°29' W 003°38'2 2.8
2017-Feb-23 07:31N 47°31' W 003°38'3 3.0
2017-Feb-23 06:33N 47°30' W 003°42'3 3.3
2017-Feb-23 05:33N 47°27' W 003°40'4 3.6
2017-Feb-23 04:33N 47°28' W 003°35'5 5.4
2017-Feb-23 03:33N 47°31' W 003°29'8 7.7
2017-Feb-23 02:33N 47°38' W 003°23'6 5.9
2017-Feb-23 01:33N 47°44' W 003°22'7 7.3
2017-Feb-23 00:33N 47°37' W 003°22'8 7.9
2017-Feb-22 23:33N 47°32' W 003°32'3 3.1
2017-Feb-22 22:33N 47°29' W 003°30'3 2.8
2017-Feb-22 21:33N 47°31' W 003°33'2 2.1
2017-Feb-22 20:33N 47°30' W 003°30'3 3.5
2017-Feb-22 19:33N 47°28' W 003°35'5 2.6
2017-Feb-22 17:27N 47°30' W 003°42'3 3.7
2017-Feb-22 16:32N 47°27' W 003°41'4 3.2
2017-Feb-22 15:17N 47°31' W 003°42'8 0.7
2017-Feb-22 04:31N 47°30' W 003°30'5 5.5
2017-Feb-22 03:33N 47°34' W 003°25'10 7.7
2017-Feb-22 02:19N 47°44' W 003°22'1 0.7
2017-Feb-22 01:33N 47°43' W 003°22'9 8.8
2017-Feb-22 00:32N 47°34' W 003°23'5 5.1
2017-Feb-21 23:33N 47°29' W 003°25'3 3.2
2017-Feb-21 22:32N 47°32' W 003°27'3 3.2
2017-Feb-21 21:33N 47°30' W 003°23'4 3.9
2017-Feb-21 20:30N 47°29' W 003°29'3 3.3
2017-Feb-21 19:33N 47°28' W 003°34'4 3.7
2017-Feb-21 18:32N 47°27' W 003°39'0 0.0
2017-Feb-21 15:03N 47°27' W 003°39'3 0.9
2017-Feb-21 11:17N 47°28' W 003°34'3 3.7
2017-Feb-21 10:34N 47°28' W 003°38'2 2.0
2017-Feb-21 09:33N 47°27' W 003°36'2 1.6
2017-Feb-21 08:33N 47°28' W 003°37'2 1.6
2017-Feb-21 07:34N 47°28' W 003°35'5 4.7
2017-Feb-21 06:33N 47°30' W 003°28'3 3.1
2017-Feb-21 05:33N 47°31' W 003°24'4 3.5
2017-Feb-21 04:34N 47°28' W 003°21'3 3.1
2017-Feb-21 03:34N 47°31' W 003°23'1 0.9
2017-Feb-21 02:33N 47°31' W 003°24'2 2.4
2017-Feb-21 01:33N 47°30' W 003°27'3 2.8
2017-Feb-21 00:33N 47°32' W 003°25'3 3.0
2017-Feb-20 23:33N 47°29' W 003°25'2 2.4
2017-Feb-20 22:33N 47°31' W 003°27'2 2.3
2017-Feb-20 21:34N 47°31' W 003°24'3 2.7
2017-Feb-20 20:34N 47°30' W 003°27'4 3.6
2017-Feb-20 19:33N 47°28' W 003°32'4 3.9
2017-Feb-20 18:33N 47°28' W 003°38'2 2.4
2017-Feb-20 17:33N 47°28' W 003°35'2 2.2
2017-Feb-20 16:33N 47°29' W 003°36'3 2.7
2017-Feb-20 15:33N 47°27' W 003°37'3 3.2
2017-Feb-20 14:33N 47°29' W 003°34'2 1.5
2017-Feb-20 13:33N 47°29' W 003°36'2 2.5
2017-Feb-20 12:33N 47°27' W 003°38'3 3.3
2017-Feb-20 11:31N 47°30' W 003°35'2 2.3
2017-Feb-20 10:33N 47°30' W 003°39'3 3.1
2017-Feb-20 09:33N 47°28' W 003°34'3 2.9
2017-Feb-20 08:33N 47°31' W 003°35'4 3.5
2017-Feb-20 07:33N 47°30' W 003°40'3 3.2
2017-Feb-20 06:33N 47°28' W 003°37'4 4.1
2017-Feb-20 05:33N 47°30' W 003°32'9 8.8
2017-Feb-20 04:33N 47°36' W 003°22'8 8.0
2017-Feb-20 03:33N 47°44' W 003°22'0 0.0
2017-Feb-18 01:21N 47°44' W 003°22'6 7.1
2017-Feb-18 00:33N 47°38' W 003°22'9 8.7
2017-Feb-17 23:33N 47°30' W 003°26'2 0.8
2017-Feb-17 21:33N 47°30' W 003°24'4 4.4
2017-Feb-17 20:33N 47°30' W 003°30'2 2.0
2017-Feb-17 19:34N 47°32' W 003°32'3 3.1
2017-Feb-17 18:33N 47°29' W 003°30'4 3.8
2017-Feb-17 17:33N 47°25' W 003°29'3 2.6
2017-Feb-17 16:33N 47°23' W 003°30'2 0.9
2017-Feb-17 14:33N 47°24' W 003°29'3 0.7
2017-Feb-17 10:26N 47°22' W 003°28'3 3.0
2017-Feb-17 09:34N 47°24' W 003°30'0 0.4
2017-Feb-17 08:34N 47°24' W 003°31'1 1.3
2017-Feb-17 07:33N 47°23' W 003°29'4 4.0
2017-Feb-17 06:33N 47°27' W 003°29'4 4.3
2017-Feb-17 05:33N 47°31' W 003°27'2 2.2
2017-Feb-17 04:34N 47°31' W 003°24'3 2.5
2017-Feb-17 03:33N 47°30' W 003°27'6 5.6
2017-Feb-17 02:34N 47°35' W 003°23'9 8.8
2017-Feb-17 01:34N 47°44' W 003°22'0 0.1
2017-Feb-17 00:34N 47°44' W 003°22'7 7.4
2017-Feb-16 23:34N 47°36' W 003°22'7 7.1
2017-Feb-16 22:33N 47°30' W 003°27'3 2.7
2017-Feb-16 21:34N 47°32' W 003°26'3 3.1
2017-Feb-16 20:34N 47°30' W 003°24'4 3.8
2017-Feb-16 19:34N 47°30' W 003°30'4 3.8
2017-Feb-16 18:34N 47°27' W 003°32'3 3.1
2017-Feb-16 17:33N 47°24' W 003°30'2 2.0
2017-Feb-16 16:33N 47°22' W 003°30'2 2.1
2017-Feb-16 15:33N 47°24' W 003°32'2 1.6
2017-Feb-16 14:33N 47°23' W 003°30'0 0.4
2017-Feb-16 13:33N 47°24' W 003°31'1 1.1
2017-Feb-16 12:34N 47°23' W 003°30'3 0.4
2017-Feb-16 05:33N 47°21' W 003°26'5 5.0
2017-Feb-16 04:33N 47°26' W 003°25'8 7.7
2017-Feb-16 03:33N 47°33' W 003°23'8 8.3
2017-Feb-16 02:33N 47°42' W 003°22'2 2.1
2017-Feb-16 01:33N 47°44' W 003°22'4 3.9
2017-Feb-16 00:33N 47°40' W 003°22'8 7.9
2017-Feb-15 23:33N 47°33' W 003°28'2 2.2
2017-Feb-15 22:33N 47°31' W 003°30'4 3.7
2017-Feb-15 21:33N 47°28' W 003°31'4 3.8
2017-Feb-15 20:33N 47°25' W 003°27'6 1.2
2017-Feb-15 15:15N 47°19' W 003°23'4 0.6
2017-Feb-15 08:24N 47°21' W 003°28'1 1.5
2017-Feb-15 07:34N 47°20' W 003°27'2 2.4
2017-Feb-15 06:34N 47°21' W 003°29'4 3.7
2017-Feb-15 05:34N 47°25' W 003°29'4 3.8
2017-Feb-15 04:33N 47°29' W 003°31'6 5.8
2017-Feb-15 03:34N 47°33' W 003°26'8 8.0
2017-Feb-15 02:34N 47°41' W 003°22'3 3.0
2017-Feb-15 01:33N 47°44' W 003°22'  
Track history (hours):
 
Tides and Currents Weather Stations Pressure Air Temp Water Temp Dewpoint Dewpoint Depression Visibility Wind Speed Wind Dir Waves Ship Positions

F/V Pasiphae 2

Last reported at 2017-Feb-25 01:30 UTC. Time now 2017-Feb-25 13:45 UTC.
Position N 47°44' W 003°22'.

Length 14 m.

Type: Fishing. MMSI: 228224800.

Date/timePositionNaut miles runAvg speedWind from/ knotsBaromVisibWave heightAir tempDewpointWater temp
2017-Feb-25 01:30N 47°44' W 003°22'7 7.1
2017-Feb-25 00:33N 47°37' W 003°22'7 7.5
2017-Feb-24 23:33N 47°30' W 003°24'3 2.6
2017-Feb-24 22:33N 47°31' W 003°27'2 2.3
2017-Feb-24 21:33N 47°31' W 003°24'3 2.7
2017-Feb-24 20:33N 47°30' W 003°27'4 3.8
2017-Feb-24 19:32N 47°30' W 003°33'4 3.6
2017-Feb-24 18:33N 47°31' W 003°38'3 3.0
2017-Feb-24 17:33N 47°28' W 003°37'3 2.7
2017-Feb-24 16:33N 47°31' W 003°37'3 2.9
2017-Feb-24 15:33N 47°30' W 003°41'3 3.4
2017-Feb-24 14:33N 47°29' W 003°36'2 2.4
2017-Feb-24 13:33N 47°31' W 003°35'4 4.0
2017-Feb-24 12:33N 47°31' W 003°40'2 1.9
2017-Feb-24 11:31N 47°29' W 003°41'3 3.6
2017-Feb-24 10:33N 47°30' W 003°36'3 2.7
2017-Feb-24 09:33N 47°32' W 003°39'4 3.5
2017-Feb-24 08:33N 47°29' W 003°42'3 3.0
2017-Feb-24 07:33N 47°26' W 003°44'4 3.4
2017-Feb-24 06:31N 47°23' W 003°47'4 3.7
2017-Feb-24 05:33N 47°20' W 003°45'9 2.7
2017-Feb-24 02:16N 47°17' W 003°33'2 3.1
2017-Feb-24 01:32N 47°16' W 003°30'4 3.4
2017-Feb-24 00:29N 47°16' W 003°25'3 3.1
2017-Feb-23 23:33N 47°18' W 003°28'2 2.4
2017-Feb-23 22:33N 47°16' W 003°29'3 2.8
2017-Feb-23 21:32N 47°16' W 003°25'22 5.5
2017-Feb-23 17:27N 47°31' W 003°49'6 6.5
2017-Feb-23 16:33N 47°29' W 003°42'2 2.1
2017-Feb-23 15:33N 47°28' W 003°39'6 5.8
2017-Feb-23 14:32N 47°28' W 003°48'3 3.1
2017-Feb-23 13:33N 47°27' W 003°52'8 8.1
2017-Feb-23 12:33N 47°28' W 003°40'3 3.1
2017-Feb-23 11:32N 47°30' W 003°37'3 2.9
2017-Feb-23 10:33N 47°31' W 003°40'3 3.2
2017-Feb-23 09:33N 47°28' W 003°42'2 2.0
2017-Feb-23 08:20N 47°29' W 003°38'2 2.8
2017-Feb-23 07:31N 47°31' W 003°38'3 3.0
2017-Feb-23 06:33N 47°30' W 003°42'3 3.3
2017-Feb-23 05:33N 47°27' W 003°40'4 3.6
2017-Feb-23 04:33N 47°28' W 003°35'5 5.4
2017-Feb-23 03:33N 47°31' W 003°29'8 7.7
2017-Feb-23 02:33N 47°38' W 003°23'6 5.9
2017-Feb-23 01:33N 47°44' W 003°22'7 7.3
2017-Feb-23 00:33N 47°37' W 003°22'8 7.9
2017-Feb-22 23:33N 47°32' W 003°32'3 3.1
2017-Feb-22 22:33N 47°29' W 003°30'3 2.8
2017-Feb-22 21:33N 47°31' W 003°33'2 2.1
2017-Feb-22 20:33N 47°30' W 003°30'3 3.5
2017-Feb-22 19:33N 47°28' W 003°35'5 2.6
2017-Feb-22 17:27N 47°30' W 003°42'3 3.7
2017-Feb-22 16:32N 47°27' W 003°41'4 3.2
2017-Feb-22 15:17N 47°31' W 003°42'8 0.7
2017-Feb-22 04:31N 47°30' W 003°30'5 5.5
2017-Feb-22 03:33N 47°34' W 003°25'10 7.7
2017-Feb-22 02:19N 47°44' W 003°22'1 0.7
2017-Feb-22 01:33N 47°43' W 003°22'9 8.8
2017-Feb-22 00:32N 47°34' W 003°23'5 5.1
2017-Feb-21 23:33N 47°29' W 003°25'3 3.2
2017-Feb-21 22:32N 47°32' W 003°27'3 3.2
2017-Feb-21 21:33N 47°30' W 003°23'4 3.9
2017-Feb-21 20:30N 47°29' W 003°29'3 3.3
2017-Feb-21 19:33N 47°28' W 003°34'4 3.7
2017-Feb-21 18:32N 47°27' W 003°39'0 0.0
2017-Feb-21 15:03N 47°27' W 003°39'3 0.9
2017-Feb-21 11:17N 47°28' W 003°34'3 3.7
2017-Feb-21 10:34N 47°28' W 003°38'2 2.0
2017-Feb-21 09:33N 47°27' W 003°36'2 1.6
2017-Feb-21 08:33N 47°28' W 003°37'2 1.6
2017-Feb-21 07:34N 47°28' W 003°35'5 4.7
2017-Feb-21 06:33N 47°30' W 003°28'3 3.1
2017-Feb-21 05:33N 47°31' W 003°24'4 3.5
2017-Feb-21 04:34N 47°28' W 003°21'3 3.1
2017-Feb-21 03:34N 47°31' W 003°23'1 0.9
2017-Feb-21 02:33N 47°31' W 003°24'2 2.4
2017-Feb-21 01:33N 47°30' W 003°27'3 2.8
2017-Feb-21 00:33N 47°32' W 003°25'3 3.0
2017-Feb-20 23:33N 47°29' W 003°25'2 2.4
2017-Feb-20 22:33N 47°31' W 003°27'2 2.3
2017-Feb-20 21:34N 47°31' W 003°24'3 2.7
2017-Feb-20 20:34N 47°30' W 003°27'4 3.6
2017-Feb-20 19:33N 47°28' W 003°32'4 3.9
2017-Feb-20 18:33N 47°28' W 003°38'2 2.4
2017-Feb-20 17:33N 47°28' W 003°35'2 2.2
2017-Feb-20 16:33N 47°29' W 003°36'3 2.7
2017-Feb-20 15:33N 47°27' W 003°37'3 3.2
2017-Feb-20 14:33N 47°29' W 003°34'2 1.5
2017-Feb-20 13:33N 47°29' W 003°36'2 2.5
2017-Feb-20 12:33N 47°27' W 003°38'3 3.3
2017-Feb-20 11:31N 47°30' W 003°35'2 2.3
2017-Feb-20 10:33N 47°30' W 003°39'3 3.1
2017-Feb-20 09:33N 47°28' W 003°34'3 2.9
2017-Feb-20 08:33N 47°31' W 003°35'4 3.5
2017-Feb-20 07:33N 47°30' W 003°40'3 3.2
2017-Feb-20 06:33N 47°28' W 003°37'4 4.1
2017-Feb-20 05:33N 47°30' W 003°32'9 8.8
2017-Feb-20 04:33N 47°36' W 003°22'8 8.0
2017-Feb-20 03:33N 47°44' W 003°22'0 0.0
2017-Feb-18 01:21N 47°44' W 003°22'6 7.1
2017-Feb-18 00:33N 47°38' W 003°22'9 8.7
2017-Feb-17 23:33N 47°30' W 003°26'2 0.8
2017-Feb-17 21:33N 47°30' W 003°24'4 4.4
2017-Feb-17 20:33N 47°30' W 003°30'2 2.0
2017-Feb-17 19:34N 47°32' W 003°32'3 3.1
2017-Feb-17 18:33N 47°29' W 003°30'4 3.8
2017-Feb-17 17:33N 47°25' W 003°29'3 2.6
2017-Feb-17 16:33N 47°23' W 003°30'2 0.9
2017-Feb-17 14:33N 47°24' W 003°29'3 0.7
2017-Feb-17 10:26N 47°22' W 003°28'3 3.0
2017-Feb-17 09:34N 47°24' W 003°30'0 0.4
2017-Feb-17 08:34N 47°24' W 003°31'1 1.3
2017-Feb-17 07:33N 47°23' W 003°29'4 4.0
2017-Feb-17 06:33N 47°27' W 003°29'4 4.3
2017-Feb-17 05:33N 47°31' W 003°27'2 2.2
2017-Feb-17 04:34N 47°31' W 003°24'3 2.5
2017-Feb-17 03:33N 47°30' W 003°27'6 5.6
2017-Feb-17 02:34N 47°35' W 003°23'9 8.8
2017-Feb-17 01:34N 47°44' W 003°22'0 0.1
2017-Feb-17 00:34N 47°44' W 003°22'7 7.4
2017-Feb-16 23:34N 47°36' W 003°22'7 7.1
2017-Feb-16 22:33N 47°30' W 003°27'3 2.7
2017-Feb-16 21:34N 47°32' W 003°26'3 3.1
2017-Feb-16 20:34N 47°30' W 003°24'4 3.8
2017-Feb-16 19:34N 47°30' W 003°30'4 3.8
2017-Feb-16 18:34N 47°27' W 003°32'3 3.1
2017-Feb-16 17:33N 47°24' W 003°30'2 2.0
2017-Feb-16 16:33N 47°22' W 003°30'2 2.1
2017-Feb-16 15:33N 47°24' W 003°32'2 1.6
2017-Feb-16 14:33N 47°23' W 003°30'0 0.4
2017-Feb-16 13:33N 47°24' W 003°31'1 1.1
2017-Feb-16 12:34N 47°23' W 003°30'3 0.4
2017-Feb-16 05:33N 47°21' W 003°26'5 5.0
2017-Feb-16 04:33N 47°26' W 003°25'8 7.7
2017-Feb-16 03:33N 47°33' W 003°23'8 8.3
2017-Feb-16 02:33N 47°42' W 003°22'2 2.1
2017-Feb-16 01:33N 47°44' W 003°22'4 3.9
2017-Feb-16 00:33N 47°40' W 003°22'8 7.9
2017-Feb-15 23:33N 47°33' W 003°28'2 2.2
2017-Feb-15 22:33N 47°31' W 003°30'4 3.7
2017-Feb-15 21:33N 47°28' W 003°31'4 3.8
2017-Feb-15 20:33N 47°25' W 003°27'6 1.2
2017-Feb-15 15:15N 47°19' W 003°23'4 0.6
2017-Feb-15 08:24N 47°21' W 003°28'1 1.5
2017-Feb-15 07:34N 47°20' W 003°27'2 2.4
2017-Feb-15 06:34N 47°21' W 003°29'4 3.7
2017-Feb-15 05:34N 47°25' W 003°29'4 3.8
2017-Feb-15 04:33N 47°29' W 003°31'6 5.8
2017-Feb-15 03:34N 47°33' W 003°26'8 8.0
2017-Feb-15 02:34N 47°41' W 003°22'3 3.0
2017-Feb-15 01:33N 47°44' W 003°22'  

Dump ship's entire track history